sensor_id;sensor_type;location;lat;lon;timestamp;P1;durP1;ratioP1;P2;durP2;ratioP2
49139;SDS011;34959;49.310;8.646;2024-03-25T00:01:04;1.20;;;0.40;;
49139;SDS011;34959;49.310;8.646;2024-03-25T00:03:30;0.95;;;0.47;;
49139;SDS011;34959;49.310;8.646;2024-03-25T00:05:55;0.57;;;0.20;;
49139;SDS011;34959;49.310;8.646;2024-03-25T00:08:22;0.82;;;0.35;;
49139;SDS011;34959;49.310;8.646;2024-03-25T00:10:47;1.27;;;0.32;;
49139;SDS011;34959;49.310;8.646;2024-03-25T00:13:13;0.40;;;0.20;;
49139;SDS011;34959;49.310;8.646;2024-03-25T00:15:38;0.60;;;0.30;;
49139;SDS011;34959;49.310;8.646;2024-03-25T00:18:04;0.85;;;0.30;;
49139;SDS011;34959;49.310;8.646;2024-03-25T00:20:29;1.20;;;0.43;;
49139;SDS011;34959;49.310;8.646;2024-03-25T00:22:55;0.93;;;0.20;;
49139;SDS011;34959;49.310;8.646;2024-03-25T00:25:20;0.60;;;0.30;;
49139;SDS011;34959;49.310;8.646;2024-03-25T00:27:46;1.52;;;0.40;;
49139;SDS011;34959;49.310;8.646;2024-03-25T00:30:12;0.80;;;0.32;;
49139;SDS011;34959;49.310;8.646;2024-03-25T00:32:39;1.05;;;0.22;;
49139;SDS011;34959;49.310;8.646;2024-03-25T00:35:05;0.98;;;0.32;;
49139;SDS011;34959;49.310;8.646;2024-03-25T00:37:30;1.70;;;0.38;;
49139;SDS011;34959;49.310;8.646;2024-03-25T00:39:56;5.63;;;0.55;;
49139;SDS011;34959;49.310;8.646;2024-03-25T00:42:21;1.50;;;0.38;;
49139;SDS011;34959;49.310;8.646;2024-03-25T00:44:47;1.90;;;0.35;;
49139;SDS011;34959;49.310;8.646;2024-03-25T00:47:12;4.95;;;0.57;;
49139;SDS011;34959;49.310;8.646;2024-03-25T00:49:38;0.93;;;0.40;;
49139;SDS011;34959;49.310;8.646;2024-03-25T00:52:03;3.70;;;0.50;;
49139;SDS011;34959;49.310;8.646;2024-03-25T00:54:29;3.15;;;0.45;;
49139;SDS011;34959;49.310;8.646;2024-03-25T00:56:54;0.70;;;0.40;;
49139;SDS011;34959;49.310;8.646;2024-03-25T00:59:20;0.40;;;0.30;;
49139;SDS011;34959;49.310;8.646;2024-03-25T01:01:45;3.17;;;0.45;;
49139;SDS011;34959;49.310;8.646;2024-03-25T01:04:11;3.58;;;0.60;;
49139;SDS011;34959;49.310;8.646;2024-03-25T01:06:36;1.83;;;0.40;;
49139;SDS011;34959;49.310;8.646;2024-03-25T01:09:02;1.77;;;0.50;;
49139;SDS011;34959;49.310;8.646;2024-03-25T01:11:29;1.20;;;0.50;;
49139;SDS011;34959;49.310;8.646;2024-03-25T01:13:55;2.83;;;0.80;;
49139;SDS011;34959;49.310;8.646;2024-03-25T01:16:21;6.60;;;0.40;;
49139;SDS011;34959;49.310;8.646;2024-03-25T01:18:46;1.13;;;0.40;;
49139;SDS011;34959;49.310;8.646;2024-03-25T01:21:12;1.75;;;0.65;;
49139;SDS011;34959;49.310;8.646;2024-03-25T01:23:37;1.80;;;0.60;;
49139;SDS011;34959;49.310;8.646;2024-03-25T01:26:03;1.85;;;0.50;;
49139;SDS011;34959;49.310;8.646;2024-03-25T01:28:28;1.63;;;0.40;;
49139;SDS011;34959;49.310;8.646;2024-03-25T01:30:53;5.22;;;0.50;;
49139;SDS011;34959;49.310;8.646;2024-03-25T01:33:19;0.98;;;0.50;;
49139;SDS011;34959;49.310;8.646;2024-03-25T01:35:45;2.40;;;0.50;;
49139;SDS011;34959;49.310;8.646;2024-03-25T01:38:10;1.23;;;0.50;;
49139;SDS011;34959;49.310;8.646;2024-03-25T01:40:36;1.58;;;0.52;;
49139;SDS011;34959;49.310;8.646;2024-03-25T01:43:02;2.95;;;0.40;;
49139;SDS011;34959;49.310;8.646;2024-03-25T01:45:34;2.63;;;0.43;;
49139;SDS011;34959;49.310;8.646;2024-03-25T01:48:07;1.15;;;0.50;;
49139;SDS011;34959;49.310;8.646;2024-03-25T01:50:35;1.05;;;0.50;;
49139;SDS011;34959;49.310;8.646;2024-03-25T01:53:02;1.30;;;0.52;;
49139;SDS011;34959;49.310;8.646;2024-03-25T01:55:29;1.70;;;0.30;;
49139;SDS011;34959;49.310;8.646;2024-03-25T01:57:56;1.27;;;0.65;;
49139;SDS011;34959;49.310;8.646;2024-03-25T02:00:21;1.88;;;0.80;;
49139;SDS011;34959;49.310;8.646;2024-03-25T02:02:48;2.60;;;0.60;;
49139;SDS011;34959;49.310;8.646;2024-03-25T02:05:17;1.45;;;0.60;;
49139;SDS011;34959;49.310;8.646;2024-03-25T02:07:43;1.75;;;0.52;;
49139;SDS011;34959;49.310;8.646;2024-03-25T02:10:09;1.70;;;0.40;;
49139;SDS011;34959;49.310;8.646;2024-03-25T02:12:35;1.30;;;0.52;;
49139;SDS011;34959;49.310;8.646;2024-03-25T02:15:02;1.25;;;0.50;;
49139;SDS011;34959;49.310;8.646;2024-03-25T02:17:27;0.80;;;0.40;;
49139;SDS011;34959;49.310;8.646;2024-03-25T02:19:53;2.58;;;0.43;;
49139;SDS011;34959;49.310;8.646;2024-03-25T02:22:19;1.00;;;0.40;;
49139;SDS011;34959;49.310;8.646;2024-03-25T02:24:45;0.82;;;0.50;;
49139;SDS011;34959;49.310;8.646;2024-03-25T02:27:11;2.55;;;0.60;;
49139;SDS011;34959;49.310;8.646;2024-03-25T02:29:39;1.70;;;0.57;;
49139;SDS011;34959;49.310;8.646;2024-03-25T02:32:06;1.98;;;0.73;;
49139;SDS011;34959;49.310;8.646;2024-03-25T02:34:31;1.88;;;0.50;;
49139;SDS011;34959;49.310;8.646;2024-03-25T02:36:57;0.98;;;0.60;;
49139;SDS011;34959;49.310;8.646;2024-03-25T02:39:22;0.88;;;0.40;;
49139;SDS011;34959;49.310;8.646;2024-03-25T02:41:49;1.45;;;0.47;;
49139;SDS011;34959;49.310;8.646;2024-03-25T02:44:15;1.27;;;0.40;;
49139;SDS011;34959;49.310;8.646;2024-03-25T02:46:40;2.85;;;0.50;;
49139;SDS011;34959;49.310;8.646;2024-03-25T02:49:06;3.20;;;0.68;;
49139;SDS011;34959;49.310;8.646;2024-03-25T02:51:31;1.55;;;0.57;;
49139;SDS011;34959;49.310;8.646;2024-03-25T02:53:57;1.70;;;0.60;;
49139;SDS011;34959;49.310;8.646;2024-03-25T02:56:22;1.38;;;0.60;;
49139;SDS011;34959;49.310;8.646;2024-03-25T02:58:47;1.95;;;0.70;;
49139;SDS011;34959;49.310;8.646;2024-03-25T03:01:15;1.70;;;0.50;;
49139;SDS011;34959;49.310;8.646;2024-03-25T03:03:41;1.10;;;0.50;;
49139;SDS011;34959;49.310;8.646;2024-03-25T03:06:06;1.42;;;0.50;;
49139;SDS011;34959;49.310;8.646;2024-03-25T03:08:31;4.88;;;0.60;;
49139;SDS011;34959;49.310;8.646;2024-03-25T03:10:57;2.58;;;0.60;;
49139;SDS011;34959;49.310;8.646;2024-03-25T03:13:22;1.77;;;0.60;;
49139;SDS011;34959;49.310;8.646;2024-03-25T03:15:48;2.13;;;0.52;;
49139;SDS011;34959;49.310;8.646;2024-03-25T03:18:13;1.00;;;0.50;;
49139;SDS011;34959;49.310;8.646;2024-03-25T03:20:38;1.73;;;0.70;;
49139;SDS011;34959;49.310;8.646;2024-03-25T03:23:04;4.32;;;0.63;;
49139;SDS011;34959;49.310;8.646;2024-03-25T03:25:30;1.42;;;0.57;;
49139;SDS011;34959;49.310;8.646;2024-03-25T03:27:56;1.45;;;0.50;;
49139;SDS011;34959;49.310;8.646;2024-03-25T03:30:21;2.13;;;0.40;;
49139;SDS011;34959;49.310;8.646;2024-03-25T03:32:47;1.13;;;0.43;;
49139;SDS011;34959;49.310;8.646;2024-03-25T03:35:12;1.88;;;0.50;;
49139;SDS011;34959;49.310;8.646;2024-03-25T03:37:38;3.05;;;0.65;;
49139;SDS011;34959;49.310;8.646;2024-03-25T03:40:03;1.52;;;0.60;;
49139;SDS011;34959;49.310;8.646;2024-03-25T03:42:32;1.65;;;0.45;;
49139;SDS011;34959;49.310;8.646;2024-03-25T03:44:58;2.00;;;0.70;;
49139;SDS011;34959;49.310;8.646;2024-03-25T03:47:23;6.10;;;0.40;;
49139;SDS011;34959;49.310;8.646;2024-03-25T03:49:49;1.23;;;0.60;;
49139;SDS011;34959;49.310;8.646;2024-03-25T03:52:14;2.05;;;0.60;;
49139;SDS011;34959;49.310;8.646;2024-03-25T03:54:39;2.10;;;0.50;;
49139;SDS011;34959;49.310;8.646;2024-03-25T03:57:05;1.30;;;0.40;;
49139;SDS011;34959;49.310;8.646;2024-03-25T03:59:30;1.30;;;0.60;;
49139;SDS011;34959;49.310;8.646;2024-03-25T04:01:56;2.97;;;0.45;;
49139;SDS011;34959;49.310;8.646;2024-03-25T04:04:21;1.45;;;0.50;;
49139;SDS011;34959;49.310;8.646;2024-03-25T04:06:47;1.23;;;0.50;;
49139;SDS011;34959;49.310;8.646;2024-03-25T04:09:14;1.45;;;0.50;;
49139;SDS011;34959;49.310;8.646;2024-03-25T04:11:39;1.88;;;0.55;;
49139;SDS011;34959;49.310;8.646;2024-03-25T04:14:04;1.55;;;0.50;;
49139;SDS011;34959;49.310;8.646;2024-03-25T04:16:30;4.10;;;0.90;;
49139;SDS011;34959;49.310;8.646;2024-03-25T04:18:56;1.42;;;0.63;;
49139;SDS011;34959;49.310;8.646;2024-03-25T04:21:22;8.40;;;0.77;;
49139;SDS011;34959;49.310;8.646;2024-03-25T04:23:48;1.98;;;0.50;;
49139;SDS011;34959;49.310;8.646;2024-03-25T04:26:14;1.20;;;0.50;;
49139;SDS011;34959;49.310;8.646;2024-03-25T04:28:40;1.20;;;0.55;;
49139;SDS011;34959;49.310;8.646;2024-03-25T04:31:07;2.35;;;0.50;;
49139;SDS011;34959;49.310;8.646;2024-03-25T04:33:32;1.13;;;0.60;;
49139;SDS011;34959;49.310;8.646;2024-03-25T04:35:58;3.05;;;0.60;;
49139;SDS011;34959;49.310;8.646;2024-03-25T04:38:23;2.30;;;0.47;;
49139;SDS011;34959;49.310;8.646;2024-03-25T04:40:49;2.10;;;0.60;;
49139;SDS011;34959;49.310;8.646;2024-03-25T04:43:15;5.38;;;0.80;;
49139;SDS011;34959;49.310;8.646;2024-03-25T04:45:40;2.25;;;0.50;;
49139;SDS011;34959;49.310;8.646;2024-03-25T04:48:06;2.38;;;0.85;;
49139;SDS011;34959;49.310;8.646;2024-03-25T04:50:32;3.10;;;0.60;;
49139;SDS011;34959;49.310;8.646;2024-03-25T04:52:58;1.67;;;0.50;;
49139;SDS011;34959;49.310;8.646;2024-03-25T04:55:23;2.47;;;0.50;;
49139;SDS011;34959;49.310;8.646;2024-03-25T04:57:49;1.60;;;0.60;;
49139;SDS011;34959;49.310;8.646;2024-03-25T05:00:15;1.35;;;0.60;;
49139;SDS011;34959;49.310;8.646;2024-03-25T05:02:40;2.20;;;0.50;;
49139;SDS011;34959;49.310;8.646;2024-03-25T05:05:05;0.82;;;0.50;;
49139;SDS011;34959;49.310;8.646;2024-03-25T05:07:32;0.98;;;0.45;;
49139;SDS011;34959;49.310;8.646;2024-03-25T05:09:58;2.00;;;0.60;;
49139;SDS011;34959;49.310;8.646;2024-03-25T05:12:23;4.93;;;0.60;;
49139;SDS011;34959;49.310;8.646;2024-03-25T05:14:52;3.08;;;0.63;;
49139;SDS011;34959;49.310;8.646;2024-03-25T05:17:17;1.95;;;0.50;;
49139;SDS011;34959;49.310;8.646;2024-03-25T05:19:43;1.50;;;0.57;;
49139;SDS011;34959;49.310;8.646;2024-03-25T05:22:08;0.57;;;0.30;;
49139;SDS011;34959;49.310;8.646;2024-03-25T05:24:34;0.77;;;0.43;;
49139;SDS011;34959;49.310;8.646;2024-03-25T05:26:59;0.88;;;0.47;;
49139;SDS011;34959;49.310;8.646;2024-03-25T05:29:24;0.60;;;0.40;;
49139;SDS011;34959;49.310;8.646;2024-03-25T05:31:56;1.17;;;0.55;;
49139;SDS011;34959;49.310;8.646;2024-03-25T05:34:23;9.25;;;0.63;;
49139;SDS011;34959;49.310;8.646;2024-03-25T05:36:49;1.30;;;0.30;;
49139;SDS011;34959;49.310;8.646;2024-03-25T05:39:15;1.02;;;0.50;;
49139;SDS011;34959;49.310;8.646;2024-03-25T05:41:40;1.00;;;0.50;;
49139;SDS011;34959;49.310;8.646;2024-03-25T05:44:06;0.85;;;0.50;;
49139;SDS011;34959;49.310;8.646;2024-03-25T05:46:31;1.52;;;0.50;;
49139;SDS011;34959;49.310;8.646;2024-03-25T05:48:56;1.65;;;0.60;;
49139;SDS011;34959;49.310;8.646;2024-03-25T05:51:22;0.90;;;0.45;;
49139;SDS011;34959;49.310;8.646;2024-03-25T05:53:47;2.05;;;0.50;;
49139;SDS011;34959;49.310;8.646;2024-03-25T05:56:12;0.85;;;0.43;;
49139;SDS011;34959;49.310;8.646;2024-03-25T05:58:38;1.40;;;0.60;;
49139;SDS011;34959;49.310;8.646;2024-03-25T06:01:03;0.60;;;0.40;;
49139;SDS011;34959;49.310;8.646;2024-03-25T06:03:29;0.95;;;0.50;;
49139;SDS011;34959;49.310;8.646;2024-03-25T06:05:55;0.40;;;0.32;;
49139;SDS011;34959;49.310;8.646;2024-03-25T06:08:20;2.58;;;0.50;;
49139;SDS011;34959;49.310;8.646;2024-03-25T06:10:51;1.48;;;0.57;;
49139;SDS011;34959;49.310;8.646;2024-03-25T06:13:17;2.13;;;0.50;;
49139;SDS011;34959;49.310;8.646;2024-03-25T06:15:43;2.28;;;0.60;;
49139;SDS011;34959;49.310;8.646;2024-03-25T06:18:08;3.35;;;0.80;;
49139;SDS011;34959;49.310;8.646;2024-03-25T06:20:34;2.25;;;0.60;;
49139;SDS011;34959;49.310;8.646;2024-03-25T06:22:59;3.95;;;1.00;;
49139;SDS011;34959;49.310;8.646;2024-03-25T06:25:24;1.67;;;0.77;;
49139;SDS011;34959;49.310;8.646;2024-03-25T06:27:50;0.77;;;0.50;;
49139;SDS011;34959;49.310;8.646;2024-03-25T06:30:15;2.25;;;0.60;;
49139;SDS011;34959;49.310;8.646;2024-03-25T06:32:59;1.67;;;0.50;;
49139;SDS011;34959;49.310;8.646;2024-03-25T06:35:43;6.25;;;0.80;;
49139;SDS011;34959;49.310;8.646;2024-03-25T06:38:09;6.03;;;0.90;;
49139;SDS011;34959;49.310;8.646;2024-03-25T06:40:35;4.65;;;0.70;;
49139;SDS011;34959;49.310;8.646;2024-03-25T06:43:01;2.30;;;0.52;;
49139;SDS011;34959;49.310;8.646;2024-03-25T06:45:26;1.90;;;0.50;;
49139;SDS011;34959;49.310;8.646;2024-03-25T06:47:51;4.43;;;0.90;;
49139;SDS011;34959;49.310;8.646;2024-03-25T06:50:17;8.07;;;0.65;;
49139;SDS011;34959;49.310;8.646;2024-03-25T06:52:42;2.95;;;0.85;;
49139;SDS011;34959;49.310;8.646;2024-03-25T06:55:08;2.92;;;0.60;;
49139;SDS011;34959;49.310;8.646;2024-03-25T06:57:33;4.85;;;0.65;;
49139;SDS011;34959;49.310;8.646;2024-03-25T06:59:58;2.60;;;0.60;;
49139;SDS011;34959;49.310;8.646;2024-03-25T07:02:24;2.30;;;0.70;;
49139;SDS011;34959;49.310;8.646;2024-03-25T07:04:49;6.38;;;0.80;;
49139;SDS011;34959;49.310;8.646;2024-03-25T07:07:15;7.65;;;0.77;;
49139;SDS011;34959;49.310;8.646;2024-03-25T07:09:40;3.70;;;0.60;;
49139;SDS011;34959;49.310;8.646;2024-03-25T07:12:06;2.80;;;0.60;;
49139;SDS011;34959;49.310;8.646;2024-03-25T07:14:32;2.40;;;0.60;;
49139;SDS011;34959;49.310;8.646;2024-03-25T07:16:57;2.05;;;0.70;;
49139;SDS011;34959;49.310;8.646;2024-03-25T07:19:22;1.65;;;0.60;;
49139;SDS011;34959;49.310;8.646;2024-03-25T07:21:48;1.80;;;0.77;;
49139;SDS011;34959;49.310;8.646;2024-03-25T07:24:13;1.92;;;0.50;;
49139;SDS011;34959;49.310;8.646;2024-03-25T07:26:39;3.58;;;0.90;;
49139;SDS011;34959;49.310;8.646;2024-03-25T07:29:04;2.35;;;0.70;;
49139;SDS011;34959;49.310;8.646;2024-03-25T07:31:29;1.00;;;0.50;;
49139;SDS011;34959;49.310;8.646;2024-03-25T07:33:55;1.60;;;0.40;;
49139;SDS011;34959;49.310;8.646;2024-03-25T07:36:20;2.10;;;0.50;;
49139;SDS011;34959;49.310;8.646;2024-03-25T07:38:45;1.90;;;0.60;;
49139;SDS011;34959;49.310;8.646;2024-03-25T07:41:11;1.77;;;0.77;;
49139;SDS011;34959;49.310;8.646;2024-03-25T07:43:36;5.25;;;0.90;;
49139;SDS011;34959;49.310;8.646;2024-03-25T07:46:02;1.65;;;0.70;;
49139;SDS011;34959;49.310;8.646;2024-03-25T07:48:27;1.38;;;0.73;;
49139;SDS011;34959;49.310;8.646;2024-03-25T07:50:52;2.28;;;0.80;;
49139;SDS011;34959;49.310;8.646;2024-03-25T07:53:18;3.45;;;0.57;;
49139;SDS011;34959;49.310;8.646;2024-03-25T07:55:43;1.67;;;0.63;;
49139;SDS011;34959;49.310;8.646;2024-03-25T07:58:09;2.97;;;1.00;;
49139;SDS011;34959;49.310;8.646;2024-03-25T08:00:34;5.25;;;2.10;;
49139;SDS011;34959;49.310;8.646;2024-03-25T08:02:59;3.47;;;1.30;;
49139;SDS011;34959;49.310;8.646;2024-03-25T08:05:25;5.43;;;1.30;;
49139;SDS011;34959;49.310;8.646;2024-03-25T08:07:50;3.58;;;1.13;;
49139;SDS011;34959;49.310;8.646;2024-03-25T08:10:16;4.45;;;1.30;;
49139;SDS011;34959;49.310;8.646;2024-03-25T08:12:41;4.90;;;1.20;;
49139;SDS011;34959;49.310;8.646;2024-03-25T08:15:07;4.80;;;1.60;;
49139;SDS011;34959;49.310;8.646;2024-03-25T08:17:33;4.00;;;1.60;;
49139;SDS011;34959;49.310;8.646;2024-03-25T08:19:58;4.80;;;1.40;;
49139;SDS011;34959;49.310;8.646;2024-03-25T08:22:23;5.10;;;1.50;;
49139;SDS011;34959;49.310;8.646;2024-03-25T08:24:49;3.22;;;1.40;;
49139;SDS011;34959;49.310;8.646;2024-03-25T08:27:14;4.22;;;1.33;;
49139;SDS011;34959;49.310;8.646;2024-03-25T08:29:40;4.32;;;1.20;;
49139;SDS011;34959;49.310;8.646;2024-03-25T08:32:06;3.15;;;1.48;;
49139;SDS011;34959;49.310;8.646;2024-03-25T08:34:31;3.40;;;1.15;;
49139;SDS011;34959;49.310;8.646;2024-03-25T08:36:56;3.20;;;1.25;;
49139;SDS011;34959;49.310;8.646;2024-03-25T08:39:22;5.00;;;1.45;;
49139;SDS011;34959;49.310;8.646;2024-03-25T08:41:47;4.25;;;1.60;;
49139;SDS011;34959;49.310;8.646;2024-03-25T08:44:13;4.25;;;1.02;;
49139;SDS011;34959;49.310;8.646;2024-03-25T08:46:38;2.15;;;1.10;;
49139;SDS011;34959;49.310;8.646;2024-03-25T08:49:04;2.38;;;1.20;;
49139;SDS011;34959;49.310;8.646;2024-03-25T08:51:29;2.85;;;1.20;;
49139;SDS011;34959;49.310;8.646;2024-03-25T08:53:55;2.50;;;1.27;;
49139;SDS011;34959;49.310;8.646;2024-03-25T08:56:20;4.00;;;1.27;;
49139;SDS011;34959;49.310;8.646;2024-03-25T08:58:46;2.70;;;1.00;;
49139;SDS011;34959;49.310;8.646;2024-03-25T09:01:11;3.05;;;1.20;;
49139;SDS011;34959;49.310;8.646;2024-03-25T09:03:39;2.08;;;1.10;;
49139;SDS011;34959;49.310;8.646;2024-03-25T09:06:05;3.08;;;1.08;;
49139;SDS011;34959;49.310;8.646;2024-03-25T09:08:32;2.45;;;1.10;;
49139;SDS011;34959;49.310;8.646;2024-03-25T09:11:17;3.88;;;1.08;;
49139;SDS011;34959;49.310;8.646;2024-03-25T09:13:43;1.65;;;1.00;;
49139;SDS011;34959;49.310;8.646;2024-03-25T09:16:08;3.10;;;1.00;;
49139;SDS011;34959;49.310;8.646;2024-03-25T09:18:33;2.17;;;0.98;;
49139;SDS011;34959;49.310;8.646;2024-03-25T09:20:59;3.60;;;1.08;;
49139;SDS011;34959;49.310;8.646;2024-03-25T09:23:24;3.22;;;1.13;;
49139;SDS011;34959;49.310;8.646;2024-03-25T09:25:53;2.08;;;1.00;;
49139;SDS011;34959;49.310;8.646;2024-03-25T09:28:18;2.20;;;0.95;;
49139;SDS011;34959;49.310;8.646;2024-03-25T09:30:44;4.00;;;1.20;;
49139;SDS011;34959;49.310;8.646;2024-03-25T09:33:09;2.53;;;0.93;;
49139;SDS011;34959;49.310;8.646;2024-03-25T09:35:35;3.45;;;1.10;;
49139;SDS011;34959;49.310;8.646;2024-03-25T09:38:02;4.95;;;1.17;;
49139;SDS011;34959;49.310;8.646;2024-03-25T09:40:27;2.00;;;1.02;;
49139;SDS011;34959;49.310;8.646;2024-03-25T09:42:57;1.63;;;0.90;;
49139;SDS011;34959;49.310;8.646;2024-03-25T09:45:26;2.10;;;1.10;;
49139;SDS011;34959;49.310;8.646;2024-03-25T09:47:53;3.08;;;1.00;;
49139;SDS011;34959;49.310;8.646;2024-03-25T09:50:20;1.73;;;0.80;;
49139;SDS011;34959;49.310;8.646;2024-03-25T09:52:46;3.17;;;0.90;;
49139;SDS011;34959;49.310;8.646;2024-03-25T09:55:11;2.75;;;0.98;;
49139;SDS011;34959;49.310;8.646;2024-03-25T09:57:37;3.10;;;0.80;;
49139;SDS011;34959;49.310;8.646;2024-03-25T10:00:04;4.65;;;0.80;;
49139;SDS011;34959;49.310;8.646;2024-03-25T10:02:30;6.40;;;1.10;;
49139;SDS011;34959;49.310;8.646;2024-03-25T10:04:56;2.08;;;0.98;;
49139;SDS011;34959;49.310;8.646;2024-03-25T10:07:24;2.47;;;1.17;;
49139;SDS011;34959;49.310;8.646;2024-03-25T10:09:53;1.30;;;0.95;;
49139;SDS011;34959;49.310;8.646;2024-03-25T10:12:18;3.30;;;1.00;;
49139;SDS011;34959;49.310;8.646;2024-03-25T10:14:45;1.70;;;0.90;;
49139;SDS011;34959;49.310;8.646;2024-03-25T10:17:10;2.58;;;0.93;;
49139;SDS011;34959;49.310;8.646;2024-03-25T10:19:36;2.03;;;0.90;;
49139;SDS011;34959;49.310;8.646;2024-03-25T10:22:08;1.38;;;0.77;;
49139;SDS011;34959;49.310;8.646;2024-03-25T10:24:41;1.70;;;0.90;;
49139;SDS011;34959;49.310;8.646;2024-03-25T10:27:22;1.77;;;0.77;;
49139;SDS011;34959;49.310;8.646;2024-03-25T10:29:51;1.55;;;0.95;;
49139;SDS011;34959;49.310;8.646;2024-03-25T10:32:18;2.17;;;0.93;;
49139;SDS011;34959;49.310;8.646;2024-03-25T10:34:44;2.45;;;0.85;;
49139;SDS011;34959;49.310;8.646;2024-03-25T10:37:10;1.95;;;0.80;;
49139;SDS011;34959;49.310;8.646;2024-03-25T10:39:39;2.78;;;0.80;;
49139;SDS011;34959;49.310;8.646;2024-03-25T10:42:05;1.65;;;0.80;;
49139;SDS011;34959;49.310;8.646;2024-03-25T10:44:31;2.92;;;0.82;;
49139;SDS011;34959;49.310;8.646;2024-03-25T10:47:01;1.67;;;0.90;;
49139;SDS011;34959;49.310;8.646;2024-03-25T10:49:38;1.85;;;0.75;;
49139;SDS011;34959;49.310;8.646;2024-03-25T10:52:11;2.03;;;0.95;;
49139;SDS011;34959;49.310;8.646;2024-03-25T10:54:38;2.63;;;0.70;;
49139;SDS011;34959;49.310;8.646;2024-03-25T10:57:04;2.58;;;0.90;;
49139;SDS011;34959;49.310;8.646;2024-03-25T10:59:31;1.80;;;1.00;;
49139;SDS011;34959;49.310;8.646;2024-03-25T11:01:59;1.40;;;0.73;;
49139;SDS011;34959;49.310;8.646;2024-03-25T11:04:24;1.58;;;0.88;;
49139;SDS011;34959;49.310;8.646;2024-03-25T11:06:50;7.28;;;1.02;;
49139;SDS011;34959;49.310;8.646;2024-03-25T11:09:24;8.32;;;0.90;;
49139;SDS011;34959;49.310;8.646;2024-03-25T11:11:53;1.40;;;0.70;;
49139;SDS011;34959;49.310;8.646;2024-03-25T11:14:18;6.28;;;0.88;;
49139;SDS011;34959;49.310;8.646;2024-03-25T11:16:50;2.10;;;0.90;;
49139;SDS011;34959;49.310;8.646;2024-03-25T11:19:19;1.35;;;0.80;;
49139;SDS011;34959;49.310;8.646;2024-03-25T11:21:46;1.67;;;0.70;;
49139;SDS011;34959;49.310;8.646;2024-03-25T11:24:11;1.48;;;0.80;;
49139;SDS011;34959;49.310;8.646;2024-03-25T11:26:40;2.03;;;0.98;;
49139;SDS011;34959;49.310;8.646;2024-03-25T11:29:06;2.22;;;0.90;;
49139;SDS011;34959;49.310;8.646;2024-03-25T11:31:32;1.70;;;0.88;;
49139;SDS011;34959;49.310;8.646;2024-03-25T11:34:03;2.42;;;0.90;;
49139;SDS011;34959;49.310;8.646;2024-03-25T11:36:29;2.53;;;0.70;;
49139;SDS011;34959;49.310;8.646;2024-03-25T11:39:05;3.53;;;0.70;;
49139;SDS011;34959;49.310;8.646;2024-03-25T11:41:34;4.28;;;0.70;;
49139;SDS011;34959;49.310;8.646;2024-03-25T11:44:04;1.85;;;0.75;;
49139;SDS011;34959;49.310;8.646;2024-03-25T11:46:29;3.38;;;0.85;;
49139;SDS011;34959;49.310;8.646;2024-03-25T11:48:55;3.15;;;0.90;;
49139;SDS011;34959;49.310;8.646;2024-03-25T11:51:21;4.20;;;1.15;;
49139;SDS011;34959;49.310;8.646;2024-03-25T11:53:46;1.65;;;0.80;;
49139;SDS011;34959;49.310;8.646;2024-03-25T11:56:11;2.75;;;1.00;;
49139;SDS011;34959;49.310;8.646;2024-03-25T11:58:37;2.42;;;0.65;;
49139;SDS011;34959;49.310;8.646;2024-03-25T12:01:03;2.45;;;0.75;;
49139;SDS011;34959;49.310;8.646;2024-03-25T12:03:29;3.58;;;0.82;;
49139;SDS011;34959;49.310;8.646;2024-03-25T12:05:55;4.00;;;0.90;;
49139;SDS011;34959;49.310;8.646;2024-03-25T12:08:21;1.67;;;0.75;;
49139;SDS011;34959;49.310;8.646;2024-03-25T12:10:50;5.07;;;0.90;;
49139;SDS011;34959;49.310;8.646;2024-03-25T12:13:35;3.13;;;1.20;;
49139;SDS011;34959;49.310;8.646;2024-03-25T12:16:01;1.42;;;0.50;;
49139;SDS011;34959;49.310;8.646;2024-03-25T12:18:27;4.80;;;1.13;;
49139;SDS011;34959;49.310;8.646;2024-03-25T12:20:53;4.78;;;0.98;;
49139;SDS011;34959;49.310;8.646;2024-03-25T12:23:18;1.63;;;0.68;;
49139;SDS011;34959;49.310;8.646;2024-03-25T12:25:49;2.35;;;0.85;;
49139;SDS011;34959;49.310;8.646;2024-03-25T12:28:15;3.72;;;0.90;;
49139;SDS011;34959;49.310;8.646;2024-03-25T12:30:48;3.13;;;0.77;;
49139;SDS011;34959;49.310;8.646;2024-03-25T12:33:14;1.55;;;0.70;;
49139;SDS011;34959;49.310;8.646;2024-03-25T12:35:41;2.47;;;0.70;;
49139;SDS011;34959;49.310;8.646;2024-03-25T12:38:06;2.63;;;0.98;;
49139;SDS011;34959;49.310;8.646;2024-03-25T12:40:32;4.43;;;1.10;;
49139;SDS011;34959;49.310;8.646;2024-03-25T12:42:58;3.30;;;0.90;;
49139;SDS011;34959;49.310;8.646;2024-03-25T12:45:23;1.48;;;0.80;;
49139;SDS011;34959;49.310;8.646;2024-03-25T12:47:52;1.55;;;0.50;;
49139;SDS011;34959;49.310;8.646;2024-03-25T12:50:17;2.33;;;0.70;;
49139;SDS011;34959;49.310;8.646;2024-03-25T12:52:43;2.42;;;0.73;;
49139;SDS011;34959;49.310;8.646;2024-03-25T12:55:09;1.80;;;0.60;;
49139;SDS011;34959;49.310;8.646;2024-03-25T12:57:34;2.47;;;0.88;;
49139;SDS011;34959;49.310;8.646;2024-03-25T13:00:00;2.75;;;0.80;;
49139;SDS011;34959;49.310;8.646;2024-03-25T13:02:26;1.45;;;0.50;;
49139;SDS011;34959;49.310;8.646;2024-03-25T13:04:52;2.25;;;0.80;;
49139;SDS011;34959;49.310;8.646;2024-03-25T13:07:17;1.70;;;0.70;;
49139;SDS011;34959;49.310;8.646;2024-03-25T13:09:42;2.78;;;0.90;;
49139;SDS011;34959;49.310;8.646;2024-03-25T13:12:08;2.70;;;0.73;;
49139;SDS011;34959;49.310;8.646;2024-03-25T13:14:33;4.32;;;0.73;;
49139;SDS011;34959;49.310;8.646;2024-03-25T13:16:59;1.38;;;0.70;;
49139;SDS011;34959;49.310;8.646;2024-03-25T13:19:24;1.85;;;0.77;;
49139;SDS011;34959;49.310;8.646;2024-03-25T13:21:53;1.77;;;0.80;;
49139;SDS011;34959;49.310;8.646;2024-03-25T13:24:18;1.45;;;0.70;;
49139;SDS011;34959;49.310;8.646;2024-03-25T13:26:44;1.67;;;0.70;;
49139;SDS011;34959;49.310;8.646;2024-03-25T13:29:09;1.75;;;0.73;;
49139;SDS011;34959;49.310;8.646;2024-03-25T13:31:35;2.50;;;0.60;;
49139;SDS011;34959;49.310;8.646;2024-03-25T13:34:01;2.13;;;0.50;;
49139;SDS011;34959;49.310;8.646;2024-03-25T13:36:27;3.65;;;0.90;;
49139;SDS011;34959;49.310;8.646;2024-03-25T13:38:53;1.23;;;0.70;;
49139;SDS011;34959;49.310;8.646;2024-03-25T13:41:18;1.40;;;0.68;;
49139;SDS011;34959;49.310;8.646;2024-03-25T13:43:47;4.75;;;1.00;;
49139;SDS011;34959;49.310;8.646;2024-03-25T13:46:12;4.05;;;1.27;;
49139;SDS011;34959;49.310;8.646;2024-03-25T13:48:38;2.55;;;0.80;;
49139;SDS011;34959;49.310;8.646;2024-03-25T13:51:04;2.42;;;0.95;;
49139;SDS011;34959;49.310;8.646;2024-03-25T13:53:29;4.82;;;0.80;;
49139;SDS011;34959;49.310;8.646;2024-03-25T13:55:55;1.98;;;0.57;;
49139;SDS011;34959;49.310;8.646;2024-03-25T13:58:20;2.60;;;0.88;;
49139;SDS011;34959;49.310;8.646;2024-03-25T14:00:46;2.33;;;0.75;;
49139;SDS011;34959;49.310;8.646;2024-03-25T14:03:11;1.42;;;0.60;;
49139;SDS011;34959;49.310;8.646;2024-03-25T14:05:36;2.35;;;0.60;;
49139;SDS011;34959;49.310;8.646;2024-03-25T14:08:02;3.35;;;0.82;;
49139;SDS011;34959;49.310;8.646;2024-03-25T14:10:28;5.30;;;0.70;;
49139;SDS011;34959;49.310;8.646;2024-03-25T14:12:55;2.60;;;0.75;;
49139;SDS011;34959;49.310;8.646;2024-03-25T14:15:20;3.65;;;0.70;;
49139;SDS011;34959;49.310;8.646;2024-03-25T14:17:45;3.13;;;0.80;;
49139;SDS011;34959;49.310;8.646;2024-03-25T14:20:11;1.30;;;0.47;;
49139;SDS011;34959;49.310;8.646;2024-03-25T14:22:36;2.40;;;0.88;;
49139;SDS011;34959;49.310;8.646;2024-03-25T14:25:02;2.97;;;0.70;;
49139;SDS011;34959;49.310;8.646;2024-03-25T14:27:27;1.63;;;0.60;;
49139;SDS011;34959;49.310;8.646;2024-03-25T14:29:53;1.85;;;0.65;;
49139;SDS011;34959;49.310;8.646;2024-03-25T14:32:19;1.80;;;0.60;;
49139;SDS011;34959;49.310;8.646;2024-03-25T14:34:45;3.83;;;0.93;;
49139;SDS011;34959;49.310;8.646;2024-03-25T14:37:10;0.98;;;0.47;;
49139;SDS011;34959;49.310;8.646;2024-03-25T14:39:36;4.47;;;0.70;;
49139;SDS011;34959;49.310;8.646;2024-03-25T14:42:01;3.20;;;0.65;;